sensor_id;sensor_type;location;lat;lon;timestamp;temperature;humidity
20315;DHT22;10315;50.958;13.080;2023-05-07T00:05:22;9.20;99.90
20315;DHT22;10315;50.958;13.080;2023-05-07T00:15:25;9.10;99.90
20315;DHT22;10315;50.958;13.080;2023-05-07T00:25:26;8.90;99.90
20315;DHT22;10315;50.958;13.080;2023-05-07T00:35:29;8.80;99.90
20315;DHT22;10315;50.958;13.080;2023-05-07T00:45:31;8.70;99.90
20315;DHT22;10315;50.958;13.080;2023-05-07T00:55:35;8.60;99.90
20315;DHT22;10315;50.958;13.080;2023-05-07T01:05:37;8.50;99.90
20315;DHT22;10315;50.958;13.080;2023-05-07T01:15:40;8.50;99.90
20315;DHT22;10315;50.958;13.080;2023-05-07T01:25:51;8.50;99.90
20315;DHT22;10315;50.958;13.080;2023-05-07T01:35:53;8.40;99.90
20315;DHT22;10315;50.958;13.080;2023-05-07T01:45:57;8.30;99.90
20315;DHT22;10315;50.958;13.080;2023-05-07T01:56:00;8.30;99.90
20315;DHT22;10315;50.958;13.080;2023-05-07T02:06:03;8.30;99.90
20315;DHT22;10315;50.958;13.080;2023-05-07T02:16:05;8.30;99.90
20315;DHT22;10315;50.958;13.080;2023-05-07T02:26:08;8.30;99.90
20315;DHT22;10315;50.958;13.080;2023-05-07T02:36:10;8.20;99.90
20315;DHT22;10315;50.958;13.080;2023-05-07T02:46:14;8.20;99.90
20315;DHT22;10315;50.958;13.080;2023-05-07T02:56:16;8.20;99.90
20315;DHT22;10315;50.958;13.080;2023-05-07T03:06:18;8.00;99.90
20315;DHT22;10315;50.958;13.080;2023-05-07T03:16:20;8.00;99.90
20315;DHT22;10315;50.958;13.080;2023-05-07T03:26:23;8.00;99.90
20315;DHT22;10315;50.958;13.080;2023-05-07T03:36:25;7.90;99.90
20315;DHT22;10315;50.958;13.080;2023-05-07T03:46:29;7.80;99.90
20315;DHT22;10315;50.958;13.080;2023-05-07T03:56:33;7.80;99.90
20315;DHT22;10315;50.958;13.080;2023-05-07T04:06:35;7.80;99.90
20315;DHT22;10315;50.958;13.080;2023-05-07T04:16:37;7.80;99.90
20315;DHT22;10315;50.958;13.080;2023-05-07T04:26:40;8.00;99.90
20315;DHT22;10315;50.958;13.080;2023-05-07T04:36:42;8.00;99.90
20315;DHT22;10315;50.958;13.080;2023-05-07T04:46:45;7.90;99.90
20315;DHT22;10315;50.958;13.080;2023-05-07T04:56:46;8.00;99.90
20315;DHT22;10315;50.958;13.080;2023-05-07T05:06:50;8.10;99.90
20315;DHT22;10315;50.958;13.080;2023-05-07T05:16:51;8.10;99.90
20315;DHT22;10315;50.958;13.080;2023-05-07T05:26:54;8.30;99.90
20315;DHT22;10315;50.958;13.080;2023-05-07T05:36:56;8.50;99.90
20315;DHT22;10315;50.958;13.080;2023-05-07T05:46:59;8.70;99.90
20315;DHT22;10315;50.958;13.080;2023-05-07T05:57:00;8.80;99.90
20315;DHT22;10315;50.958;13.080;2023-05-07T06:07:05;8.80;99.90
20315;DHT22;10315;50.958;13.080;2023-05-07T06:17:07;8.70;99.90
20315;DHT22;10315;50.958;13.080;2023-05-07T06:27:10;8.90;99.90
20315;DHT22;10315;50.958;13.080;2023-05-07T06:37:11;8.80;99.90
20315;DHT22;10315;50.958;13.080;2023-05-07T06:47:14;8.90;99.90
20315;DHT22;10315;50.958;13.080;2023-05-07T06:57:16;9.10;99.90
20315;DHT22;10315;50.958;13.080;2023-05-07T07:07:19;9.60;99.90
20315;DHT22;10315;50.958;13.080;2023-05-07T07:17:20;10.10;99.90
20315;DHT22;10315;50.958;13.080;2023-05-07T07:27:23;10.80;99.90
20315;DHT22;10315;50.958;13.080;2023-05-07T07:37:25;10.50;99.90
20315;DHT22;10315;50.958;13.080;2023-05-07T07:47:28;10.40;99.90
20315;DHT22;10315;50.958;13.080;2023-05-07T07:57:29;10.50;99.90
20315;DHT22;10315;50.958;13.080;2023-05-07T08:07:32;10.40;99.90
20315;DHT22;10315;50.958;13.080;2023-05-07T08:17:34;10.20;99.90
20315;DHT22;10315;50.958;13.080;2023-05-07T08:27:37;9.80;99.90
20315;DHT22;10315;50.958;13.080;2023-05-07T08:37:38;9.90;99.90
20315;DHT22;10315;50.958;13.080;2023-05-07T08:47:43;9.60;99.90
20315;DHT22;10315;50.958;13.080;2023-05-07T08:57:46;9.30;99.90
20315;DHT22;10315;50.958;13.080;2023-05-07T09:07:50;9.70;99.90
20315;DHT22;10315;50.958;13.080;2023-05-07T09:17:51;10.00;99.90
20315;DHT22;10315;50.958;13.080;2023-05-07T09:27:54;9.90;99.90
20315;DHT22;10315;50.958;13.080;2023-05-07T09:37:57;10.20;99.90
20315;DHT22;10315;50.958;13.080;2023-05-07T09:48:02;10.20;99.90
20315;DHT22;10315;50.958;13.080;2023-05-07T09:58:06;10.20;99.90
20315;DHT22;10315;50.958;13.080;2023-05-07T10:08:10;10.10;99.90
20315;DHT22;10315;50.958;13.080;2023-05-07T10:18:13;10.40;99.90
20315;DHT22;10315;50.958;13.080;2023-05-07T10:28:18;10.20;99.90
20315;DHT22;10315;50.958;13.080;2023-05-07T10:38:21;10.60;99.90
20315;DHT22;10315;50.958;13.080;2023-05-07T10:48:24;11.00;99.90
20315;DHT22;10315;50.958;13.080;2023-05-07T10:58:26;11.00;99.90
20315;DHT22;10315;50.958;13.080;2023-05-07T11:08:55;11.40;99.90
20315;DHT22;10315;50.958;13.080;2023-05-07T11:18:57;11.40;99.90
20315;DHT22;10315;50.958;13.080;2023-05-07T11:29:00;11.60;99.90
20315;DHT22;10315;50.958;13.080;2023-05-07T11:39:02;13.60;99.90
20315;DHT22;10315;50.958;13.080;2023-05-07T11:49:05;14.20;99.90
20315;DHT22;10315;50.958;13.080;2023-05-07T11:59:07;14.70;99.90
20315;DHT22;10315;50.958;13.080;2023-05-07T12:09:10;14.30;99.90
20315;DHT22;10315;50.958;13.080;2023-05-07T12:19:14;13.80;99.90
20315;DHT22;10315;50.958;13.080;2023-05-07T12:29:17;14.50;99.90
20315;DHT22;10315;50.958;13.080;2023-05-07T12:39:22;14.90;99.90
20315;DHT22;10315;50.958;13.080;2023-05-07T12:49:25;14.80;99.90
20315;DHT22;10315;50.958;13.080;2023-05-07T12:59:31;14.10;99.90
20315;DHT22;10315;50.958;13.080;2023-05-07T13:09:34;14.40;99.90
20315;DHT22;10315;50.958;13.080;2023-05-07T13:19:38;13.40;99.90
20315;DHT22;10315;50.958;13.080;2023-05-07T13:29:41;13.80;99.90
20315;DHT22;10315;50.958;13.080;2023-05-07T13:39:42;13.80;99.90
20315;DHT22;10315;50.958;13.080;2023-05-07T13:49:46;14.10;99.90
20315;DHT22;10315;50.958;13.080;2023-05-07T13:59:49;14.00;99.90
20315;DHT22;10315;50.958;13.080;2023-05-07T14:09:52;14.90;99.90
20315;DHT22;10315;50.958;13.080;2023-05-07T14:19:54;14.40;99.90
20315;DHT22;10315;50.958;13.080;2023-05-07T14:29:57;14.50;99.90
20315;DHT22;10315;50.958;13.080;2023-05-07T14:39:58;14.30;99.90
20315;DHT22;10315;50.958;13.080;2023-05-07T14:50:01;13.90;99.90
20315;DHT22;10315;50.958;13.080;2023-05-07T15:00:04;13.40;99.90
20315;DHT22;10315;50.958;13.080;2023-05-07T15:10:09;13.50;99.90
20315;DHT22;10315;50.958;13.080;2023-05-07T15:20:11;13.80;99.90
20315;DHT22;10315;50.958;13.080;2023-05-07T15:30:14;13.80;99.90
20315;DHT22;10315;50.958;13.080;2023-05-07T15:40:16;13.30;99.90
20315;DHT22;10315;50.958;13.080;2023-05-07T15:50:19;13.40;99.90
20315;DHT22;10315;50.958;13.080;2023-05-07T16:00:21;13.30;99.90
20315;DHT22;10315;50.958;13.080;2023-05-07T16:10:25;13.50;99.90
20315;DHT22;10315;50.958;13.080;2023-05-07T16:20:28;13.30;99.90
20315;DHT22;10315;50.958;13.080;2023-05-07T16:30:31;12.90;99.90
20315;DHT22;10315;50.958;13.080;2023-05-07T16:40:36;12.50;99.90
20315;DHT22;10315;50.958;13.080;2023-05-07T16:50:39;12.40;99.90
20315;DHT22;10315;50.958;13.080;2023-05-07T17:00:40;12.40;99.90
20315;DHT22;10315;50.958;13.080;2023-05-07T17:10:43;12.10;99.90
20315;DHT22;10315;50.958;13.080;2023-05-07T17:20:45;11.80;99.90
20315;DHT22;10315;50.958;13.080;2023-05-07T17:30:48;11.20;99.90
20315;DHT22;10315;50.958;13.080;2023-05-07T17:40:50;11.00;99.90
20315;DHT22;10315;50.958;13.080;2023-05-07T17:51:01;10.60;99.90
20315;DHT22;10315;50.958;13.080;2023-05-07T18:01:03;10.20;99.90
20315;DHT22;10315;50.958;13.080;2023-05-07T18:11:06;9.90;99.90
20315;DHT22;10315;50.958;13.080;2023-05-07T18:21:07;9.70;99.90
20315;DHT22;10315;50.958;13.080;2023-05-07T18:31:15;9.40;99.90
20315;DHT22;10315;50.958;13.080;2023-05-07T18:41:17;9.10;99.90
20315;DHT22;10315;50.958;13.080;2023-05-07T18:51:20;8.80;99.90
20315;DHT22;10315;50.958;13.080;2023-05-07T19:01:21;8.60;99.90
20315;DHT22;10315;50.958;13.080;2023-05-07T19:11:24;8.40;99.90
20315;DHT22;10315;50.958;13.080;2023-05-07T19:21:26;8.10;99.90
20315;DHT22;10315;50.958;13.080;2023-05-07T19:31:29;7.90;99.90
20315;DHT22;10315;50.958;13.080;2023-05-07T19:41:32;7.70;99.90
20315;DHT22;10315;50.958;13.080;2023-05-07T19:51:35;7.60;99.90
20315;DHT22;10315;50.958;13.080;2023-05-07T20:01:37;7.50;99.90
20315;DHT22;10315;50.958;13.080;2023-05-07T20:11:42;7.20;99.90
20315;DHT22;10315;50.958;13.080;2023-05-07T20:21:43;7.10;99.90
20315;DHT22;10315;50.958;13.080;2023-05-07T20:31:46;7.00;99.90
20315;DHT22;10315;50.958;13.080;2023-05-07T20:41:48;7.10;99.90
20315;DHT22;10315;50.958;13.080;2023-05-07T20:51:51;7.20;99.90
20315;DHT22;10315;50.958;13.080;2023-05-07T21:01:52;6.90;99.90
20315;DHT22;10315;50.958;13.080;2023-05-07T21:11:57;6.70;99.90
20315;DHT22;10315;50.958;13.080;2023-05-07T21:21:58;6.50;99.90
20315;DHT22;10315;50.958;13.080;2023-05-07T21:32:01;6.30;99.90
20315;DHT22;10315;50.958;13.080;2023-05-07T21:42:04;6.20;99.90
20315;DHT22;10315;50.958;13.080;2023-05-07T21:52:11;6.20;99.90
20315;DHT22;10315;50.958;13.080;2023-05-07T22:02:12;6.20;99.90
20315;DHT22;10315;50.958;13.080;2023-05-07T22:12:15;6.40;99.90
20315;DHT22;10315;50.958;13.080;2023-05-07T22:22:17;6.50;99.90
20315;DHT22;10315;50.958;13.080;2023-05-07T22:32:20;6.70;99.90
20315;DHT22;10315;50.958;13.080;2023-05-07T22:42:22;6.90;99.90
20315;DHT22;10315;50.958;13.080;2023-05-07T22:52:25;6.60;99.90
20315;DHT22;10315;50.958;13.080;2023-05-07T23:02:27;6.30;99.90
20315;DHT22;10315;50.958;13.080;2023-05-07T23:12:32;6.00;99.90
20315;DHT22;10315;50.958;13.080;2023-05-07T23:22:33;5.90;99.90
20315;DHT22;10315;50.958;13.080;2023-05-07T23:32:36;5.70;99.90
20315;DHT22;10315;50.958;13.080;2023-05-07T23:42:38;5.60;99.90
20315;DHT22;10315;50.958;13.080;2023-05-07T23:52:41;5.40;99.90
